Time;durP1;ratioP1;P1;durP2;ratioP2;P2;SDS_P1;SDS_P2;PMS_P1;PMS_P2;Temp;Humidity;BMP_temperature;BMP_pressure;BME280_temperature;BME280_humidity;BME280_pressure;Samples;Min_cycle;Max_cycle;Signal;HPM_P1;HPM_P2
2022/05/03 00:02:39;;;;;;;7.53;3.80;;;;;;;12.73;76.13;100235.16;5590493;31;34603;-63
2022/05/03 00:06:31;;;;;;;5.80;4.00;;;;;;;12.76;76.77;100237.44;5589521;31;32345;-63
2022/05/03 00:09:55;;;;;;;6.70;4.07;;;;;;;12.73;77.45;100240.47;5516728;32;32829;-63
2022/05/03 00:13:05;;;;;;;5.32;3.60;;;;;;;12.62;78.20;100235.62;5535038;31;34741;-63
2022/05/03 00:16:08;;;;;;;5.72;3.78;;;;;;;12.58;79.48;100242.34;5590129;31;34360;-63
2022/05/03 00:19:12;;;;;;;6.60;3.90;;;;;;;12.60;80.29;100233.16;5590454;31;34670;-63
2022/05/03 00:22:15;;;;;;;6.45;4.25;;;;;;;12.45;80.44;100242.97;5589624;31;33952;-62
2022/05/03 00:25:18;;;;;;;5.65;4.03;;;;;;;12.35;81.11;100233.59;5589916;31;34147;-63
2022/05/03 00:28:21;;;;;;;11.77;4.25;;;;;;;12.41;81.84;100232.88;5590394;31;34062;-63
2022/05/03 00:31:25;;;;;;;8.27;4.10;;;;;;;12.28;82.39;100230.84;5576232;31;33702;-63
2022/05/03 00:34:31;;;;;;;6.05;3.72;;;;;;;12.20;82.73;100237.06;5590290;31;34041;-63
2022/05/03 00:37:33;;;;;;;7.20;4.03;;;;;;;12.15;83.91;100234.13;5589256;31;33455;-63
2022/05/03 00:40:44;;;;;;;6.62;3.70;;;;;;;12.12;84.43;100228.34;5589878;31;34624;-63
2022/05/03 00:43:56;;;;;;;7.47;4.57;;;;;;;12.09;85.66;100224.22;5589865;31;33966;-63
2022/05/03 00:47:08;;;;;;;6.85;4.35;;;;;;;12.26;85.43;100224.03;5589764;31;35155;-63
2022/05/03 00:50:19;;;;;;;7.35;4.32;;;;;;;12.21;86.66;100229.91;5589797;31;34301;-63
2022/05/03 00:53:33;;;;;;;7.40;4.65;;;;;;;12.37;85.78;100228.94;5590135;31;34651;-63
2022/05/03 00:57:09;;;;;;;7.75;4.90;;;;;;;12.18;86.32;100224.97;5589693;31;34781;-63
2022/05/03 01:00:14;;;;;;;6.72;4.80;;;;;;;12.24;86.67;100224.25;5564954;31;35139;-63
2022/05/03 01:03:25;;;;;;;6.47;4.90;;;;;;;12.19;87.39;100216.81;5589144;31;32759;-63
2022/05/03 01:06:43;;;;;;;6.85;4.53;;;;;;;11.96;87.97;100215.19;5589620;31;34284;-63
2022/05/03 01:10:04;;;;;;;9.98;4.55;;;;;;;11.79;88.51;100224.34;5589741;31;34014;-63
2022/05/03 01:13:29;;;;;;;6.85;4.15;;;;;;;11.71;88.32;100226.00;5588825;31;34589;-63
2022/05/03 01:16:38;;;;;;;7.18;4.47;;;;;;;11.61;88.32;100221.97;5589659;31;34011;-63
2022/05/03 01:20:01;;;;;;;6.65;4.12;;;;;;;11.65;88.37;100225.91;5589215;31;33859;-63
2022/05/03 01:23:33;;;;;;;5.93;4.30;;;;;;;11.57;88.64;100226.78;5589544;31;33969;-63
2022/05/03 01:27:08;;;;;;;6.97;4.28;;;;;;;11.63;88.72;100230.56;5589759;31;34191;-63
2022/05/03 01:30:11;;;;;;;8.90;4.70;;;;;;;11.56;88.99;100225.16;5588651;31;32648;-63
2022/05/03 01:33:17;;;;;;;7.00;4.57;;;;;;;11.49;89.37;100223.37;5589355;31;34142;-63
2022/05/03 01:36:30;;;;;;;9.88;4.80;;;;;;;11.48;89.71;100227.88;5589394;31;34355;-63
2022/05/03 01:39:43;;;;;;;6.87;4.82;;;;;;;11.39;90.47;100222.78;5589491;31;33993;-63
2022/05/03 01:43:07;;;;;;;6.22;4.70;;;;;;;11.37;90.78;100227.47;5589424;31;34121;-63
2022/05/03 01:46:24;;;;;;;6.30;4.70;;;;;;;11.38;90.96;100229.09;5589355;31;33903;-63
2022/05/03 01:53:15;;;;;;;8.43;4.28;;;;;;;11.38;91.31;100219.31;5589300;31;33988;-63
2022/05/03 01:56:42;;;;;;;7.75;4.72;;;;;;;11.31;90.85;100227.16;5589222;31;33912;-63
2022/05/03 02:00:08;;;;;;;8.05;4.07;;;;;;;11.32;90.83;100234.13;5588371;31;34275;-63
2022/05/03 02:03:31;;;;;;;5.80;4.15;;;;;;;11.42;89.11;100228.59;5588081;31;32999;-63
2022/05/03 02:06:43;;;;;;;8.90;4.30;;;;;;;11.44;88.20;100226.56;5588975;31;34037;-63
2022/05/03 02:09:45;;;;;;;7.68;4.43;;;;;;;11.34;88.84;100228.62;5589321;31;34580;-63
2022/05/03 02:12:56;;;;;;;4.57;3.72;;;;;;;11.17;89.53;100230.56;5589045;31;35219;-63
2022/05/03 02:16:07;;;;;;;;;;;;;;;11.06;90.66;100224.81;5589123;31;33914;-63
2022/05/03 02:19:30;;;;;;;7.20;3.95;;;;;;;10.99;91.50;100227.34;5588229;31;35682;-63
2022/05/03 02:22:57;;;;;;;5.82;4.10;;;;;;;10.87;91.88;100232.22;5588712;31;33918;-62
2022/05/03 02:26:15;;;;;;;5.50;3.97;;;;;;;10.84;92.32;100232.56;5588529;31;34568;-63
2022/05/03 02:29:37;;;;;;;5.87;4.12;;;;;;;10.78;92.64;100235.09;5588517;31;34402;-63
2022/05/03 02:33:04;;;;;;;6.97;4.05;;;;;;;10.68;92.71;100224.69;5583602;31;134283;-63
2022/05/03 02:36:13;;;;;;;6.03;4.20;;;;;;;10.65;93.32;100229.50;5587778;31;32572;-63
2022/05/03 02:39:20;;;;;;;7.53;4.30;;;;;;;10.67;93.92;100232.81;5588328;31;35298;-62
2022/05/03 02:42:25;;;;;;;8.43;4.15;;;;;;;10.62;94.25;100229.84;5588288;31;34628;-63
2022/05/03 02:45:33;;;;;;;8.13;4.57;;;;;;;10.54;94.73;100228.06;5588169;31;34047;-63
2022/05/03 02:48:52;;;;;;;6.20;4.10;;;;;;;10.51;95.71;100235.50;5590852;31;34025;-63
2022/05/03 02:51:55;;;;;;;5.40;4.30;;;;;;;10.39;95.50;100227.94;5591228;31;34567;-63
2022/05/03 02:55:00;;;;;;;6.93;4.10;;;;;;;10.32;96.14;100228.75;5591095;31;34078;-63
2022/05/03 02:58:35;;;;;;;6.80;4.43;;;;;;;10.27;96.24;100225.78;5590038;31;34558;-63
2022/05/03 03:02:07;;;;;;;8.52;4.30;;;;;;;10.19;97.05;100231.13;5591115;31;33904;-63
2022/05/03 03:05:12;;;;;;;7.62;4.55;;;;;;;10.12;97.65;100225.62;5589738;31;33851;-63
2022/05/03 03:08:19;;;;;;;7.00;4.93;;;;;;;10.11;97.46;100229.28;5590606;31;34096;-63
2022/05/03 03:11:27;;;;;;;6.05;4.28;;;;;;;9.99;98.21;100223.50;5591066;31;34039;-63
2022/05/03 03:14:42;;;;;;;7.12;4.50;;;;;;;9.97;98.97;100237.94;5591011;31;34597;-63
2022/05/03 03:17:50;;;;;;;7.07;4.32;;;;;;;10.03;100.00;100235.41;5590580;31;34588;-63
2022/05/03 03:20:55;;;;;;;6.78;4.55;;;;;;;9.97;100.00;100230.78;5590009;31;33181;-63
2022/05/03 03:24:01;;;;;;;7.10;4.93;;;;;;;9.96;100.00;100237.09;5590554;31;35155;-61
2022/05/03 03:27:05;;;;;;;6.15;4.50;;;;;;;9.90;100.00;100239.59;5590526;31;35153;-63
2022/05/03 03:30:10;;;;;;;8.18;5.05;;;;;;;9.90;100.00;100235.12;5590507;31;33901;-63
2022/05/03 03:33:14;;;;;;;9.30;4.75;;;;;;;9.85;100.00;100239.25;5590429;31;34005;-63
2022/05/03 03:36:18;;;;;;;7.20;4.93;;;;;;;9.82;100.00;100236.94;5590476;31;33998;-63
2022/05/03 03:39:20;;;;;;;7.25;5.03;;;;;;;9.81;100.00;100237.94;5589719;31;33443;-63
2022/05/03 03:42:27;;;;;;;6.43;4.68;;;;;;;9.89;100.00;100241.41;5590728;31;34568;-63
2022/05/03 03:45:29;;;;;;;7.45;4.75;;;;;;;10.05;100.00;100248.50;5590084;31;33961;-63
2022/05/03 03:48:33;;;;;;;6.30;4.28;;;;;;;10.01;100.00;100253.34;5590346;31;34032;-63
2022/05/03 03:51:37;;;;;;;8.20;5.05;;;;;;;10.03;100.00;100251.31;5590327;31;34598;-63
2022/05/03 03:54:40;;;;;;;7.78;4.93;;;;;;;10.11;100.00;100257.63;5589688;31;33294;-63
2022/05/03 03:57:44;;;;;;;7.55;4.62;;;;;;;10.11;100.00;100269.06;5589127;31;34013;-63
2022/05/03 04:00:47;;;;;;;8.45;5.62;;;;;;;10.12;100.00;100268.03;5590454;31;34568;-62
2022/05/03 04:03:51;;;;;;;11.73;5.72;;;;;;;10.19;100.00;100262.94;5590225;31;34620;-63
2022/05/03 04:06:53;;;;;;;6.25;5.00;;;;;;;10.20;100.00;100262.78;5590042;31;34019;-63
2022/05/03 04:09:56;;;;;;;10.10;6.05;;;;;;;10.15;100.00;100264.25;5589977;31;34144;-63
2022/05/03 04:12:59;;;;;;;11.18;6.25;;;;;;;10.19;100.00;100265.59;5589388;31;32522;-63
2022/05/03 04:16:05;;;;;;;8.30;5.75;;;;;;;10.22;100.00;100270.53;5590015;31;34636;-63
2022/05/03 04:19:08;;;;;;;9.05;5.22;;;;;;;10.26;100.00;100270.03;5590044;31;33861;-63
2022/05/03 04:22:33;;;;;;;8.05;5.10;;;;;;;10.34;100.00;100270.03;5589243;31;33258;-63
2022/05/03 04:25:36;;;;;;;8.98;5.45;;;;;;;10.46;100.00;100270.50;5589148;31;33366;-63
2022/05/03 04:28:39;;;;;;;9.25;5.35;;;;;;;10.59;100.00;100269.97;5588533;31;33497;-64
2022/05/03 04:31:42;;;;;;;11.52;5.32;;;;;;;10.79;100.00;100266.78;5589884;31;34037;-63
2022/05/03 04:34:45;;;;;;;7.47;5.12;;;;;;;11.00;100.00;100274.13;5590013;31;33932;-63
2022/05/03 04:37:48;;;;;;;8.88;5.30;;;;;;;11.00;100.00;100275.94;5588926;31;33092;-63
2022/05/03 04:40:57;;;;;;;11.80;5.15;;;;;;;10.98;100.00;100272.66;5589680;31;34887;-64
2022/05/03 04:44:00;;;;;;;9.48;5.80;;;;;;;11.00;100.00;100265.34;5588694;31;32445;-63
2022/05/03 04:47:03;;;;;;;9.35;5.82;;;;;;;11.08;100.00;100278.59;5588381;31;32813;-64
2022/05/03 04:50:06;;;;;;;8.65;5.57;;;;;;;11.21;100.00;100282.31;5589606;31;35324;-63
2022/05/03 04:53:09;;;;;;;8.98;5.95;;;;;;;11.31;99.90;100282.94;5589039;31;33889;-64
2022/05/03 04:56:25;;;;;;;19.55;6.40;;;;;;;11.47;99.61;100275.88;5589298;31;34552;-64
2022/05/03 04:59:28;;;;;;;9.23;5.80;;;;;;;11.57;98.78;100281.78;5588983;31;32814;-63
2022/05/03 05:02:32;;;;;;;8.23;6.10;;;;;;;11.71;97.75;100281.03;5588957;31;33125;-63
2022/05/03 05:05:35;;;;;;;9.32;6.10;;;;;;;11.84;96.47;100281.28;5588974;31;33344;-64
2022/05/03 05:08:39;;;;;;;8.23;5.82;;;;;;;11.90;94.79;100277.91;5588165;31;33810;-64
2022/05/03 05:11:41;;;;;;;11.18;5.87;;;;;;;12.06;94.68;100283.06;5588647;31;32663;-64
2022/05/03 05:14:44;;;;;;;9.18;5.57;;;;;;;12.23;92.81;100277.63;5589768;31;33969;-64
2022/05/03 05:17:47;;;;;;;11.27;5.10;;;;;;;12.30;91.19;100275.88;5588850;31;32354;-64
2022/05/03 05:20:53;;;;;;;7.57;5.15;;;;;;;12.48;89.40;100276.38;5589367;31;34643;-63
2022/05/03 05:24:02;;;;;;;7.57;5.32;;;;;;;12.52;88.40;100281.16;5589421;31;33946;-64
2022/05/03 05:27:05;;;;;;;9.23;5.78;;;;;;;12.66;87.34;100283.97;5588373;31;32544;-64
2022/05/03 05:30:09;;;;;;;10.52;5.93;;;;;;;12.63;87.32;100277.22;5589025;31;33877;-64
2022/05/03 05:33:12;;;;;;;8.20;5.62;;;;;;;12.94;86.67;100274.34;5575481;31;31917;-64
2022/05/03 05:36:14;;;;;;;8.38;5.35;;;;;;;13.01;85.07;100272.59;5588311;31;32591;-64
2022/05/03 05:39:17;;;;;;;14.18;5.55;;;;;;;13.04;85.56;100277.53;5587735;31;33830;-64
2022/05/03 05:42:20;;;;;;;8.02;5.07;;;;;;;13.20;83.75;100276.53;5588336;31;33003;-64
2022/05/03 05:45:22;;;;;;;8.50;5.37;;;;;;;13.40;83.64;100277.59;5587663;31;32638;-64
2022/05/03 05:48:25;;;;;;;10.27;5.82;;;;;;;13.64;82.54;100277.22;5588700;31;34932;-64
2022/05/03 05:51:27;;;;;;;8.00;4.95;;;;;;;13.81;81.55;100273.28;5588064;31;33059;-64
2022/05/03 05:54:30;;;;;;;8.80;5.78;;;;;;;13.81;80.49;100275.94;5588038;31;32749;-64
2022/05/03 05:57:33;;;;;;;8.57;5.28;;;;;;;13.85;81.85;100281.72;5587869;31;32680;-64
2022/05/03 06:00:35;;;;;;;10.48;5.60;;;;;;;13.99;79.11;100288.00;5587465;31;32219;-64
2022/05/03 06:03:40;;;;;;;8.80;4.70;;;;;;;14.15;78.58;100283.22;5587576;31;33823;-64
2022/05/03 06:06:43;;;;;;;9.40;4.15;;;;;;;14.25;75.37;100272.22;5587533;31;33784;-64
2022/05/03 06:09:46;;;;;;;7.78;4.50;;;;;;;14.34;73.89;100273.72;5588516;31;34001;-64
2022/05/03 06:12:49;;;;;;;7.43;4.70;;;;;;;14.56;74.21;100277.19;5587730;31;32639;-64
2022/05/03 06:15:53;;;;;;;8.43;4.87;;;;;;;14.65;73.34;100274.16;5587359;31;34688;-64
2022/05/03 06:18:56;;;;;;;10.07;5.00;;;;;;;14.79;72.40;100269.72;5587378;31;32407;-64
2022/05/03 06:21:58;;;;;;;6.40;4.30;;;;;;;14.83;73.07;100278.97;5589095;31;32485;-64
2022/05/03 06:25:01;;;;;;;9.63;4.65;;;;;;;15.02;71.93;100280.91;5589954;31;32448;-64
2022/05/03 06:28:04;;;;;;;7.28;4.62;;;;;;;15.04;70.05;100281.56;5590005;31;32752;-64
2022/05/03 06:31:07;;;;;;;8.20;5.07;;;;;;;15.29;68.86;100281.84;5590317;31;34047;-64
2022/05/03 06:34:10;;;;;;;10.60;4.62;;;;;;;15.44;67.80;100279.81;5590326;31;34043;-64
2022/05/03 06:37:22;;;;;;;10.70;4.90;;;;;;;15.61;66.91;100283.00;5589696;31;34569;-66
2022/05/03 06:40:25;;;;;;;9.73;4.45;;;;;;;15.90;66.21;100279.94;5589858;31;32681;-64
2022/05/03 06:43:28;;;;;;;7.03;3.97;;;;;;;16.22;64.62;100280.97;5590545;31;34958;-64
2022/05/03 06:46:31;;;;;;;8.23;3.92;;;;;;;16.50;63.06;100281.59;5589567;31;33218;-64
2022/05/03 06:49:33;;;;;;;10.70;3.90;;;;;;;16.79;60.70;100283.00;5590130;31;33814;-64
2022/05/03 06:52:36;;;;;;;7.85;3.67;;;;;;;17.10;60.04;100281.44;5589854;31;32370;-65
2022/05/03 06:55:39;;;;;;;5.20;3.75;;;;;;;17.19;58.27;100290.88;5589690;31;33179;-64
2022/05/03 06:58:41;;;;;;;5.10;3.70;;;;;;;17.47;57.85;100287.87;5589748;31;32762;-64
2022/05/03 07:01:44;;;;;;;4.72;3.78;;;;;;;17.65;57.26;100288.81;5589744;31;33246;-64
2022/05/03 07:04:47;;;;;;;5.47;3.67;;;;;;;17.71;56.17;100290.66;5589765;31;33211;-64
2022/05/03 07:07:50;;;;;;;6.00;3.70;;;;;;;17.87;58.07;100285.78;5589656;31;32699;-64
2022/05/03 07:10:52;;;;;;;6.43;3.67;;;;;;;18.69;56.26;100285.47;5589202;31;33058;-65
2022/05/03 07:13:55;;;;;;;7.75;3.83;;;;;;;20.06;51.98;100276.66;5589542;31;33351;-66
2022/05/03 07:16:58;;;;;;;6.60;3.30;;;;;;;20.25;47.14;100280.87;5590297;31;34052;-65
2022/05/03 07:23:26;;;;;;;6.12;3.25;;;;;;;21.52;45.94;100283.66;5589746;31;32310;-65
2022/05/03 07:26:28;;;;;;;6.60;4.18;;;;;;;22.90;43.07;100286.44;5589429;31;33055;-65
2022/05/03 07:29:31;;;;;;;7.30;3.40;;;;;;;23.20;40.15;100287.91;5589538;31;32584;-65
2022/05/03 07:32:34;;;;;;;4.47;3.30;;;;;;;22.32;42.54;100294.22;5589080;31;32525;-65
2022/05/03 07:35:37;;;;;;;5.37;3.15;;;;;;;23.56;38.46;100284.56;5590348;31;34724;-65
2022/05/03 07:38:40;;;;;;;4.30;3.05;;;;;;;24.24;36.09;100283.03;5589628;31;32445;-65
2022/05/03 07:41:42;;;;;;;3.30;2.53;;;;;;;24.36;35.88;100286.38;5590413;31;34024;-66
2022/05/03 07:44:45;;;;;;;7.37;3.03;;;;;;;24.53;36.05;100286.22;5590094;31;35374;-66
2022/05/03 07:47:48;;;;;;;6.15;2.72;;;;;;;25.22;34.38;100286.06;5589702;31;33151;-65
2022/05/03 07:50:50;;;;;;;3.95;2.70;;;;;;;24.65;34.52;100281.41;5589399;31;33140;-66
2022/05/03 07:53:53;;;;;;;3.08;2.62;;;;;;;25.18;33.57;100285.75;5590003;31;33888;-66
2022/05/03 07:56:56;;;;;;;4.32;2.78;;;;;;;25.83;33.41;100284.31;5589788;31;34058;-66
2022/05/03 07:59:58;;;;;;;5.72;2.58;;;;;;;26.91;31.81;100283.97;5589296;31;32892;-66
2022/05/03 08:03:01;;;;;;;4.68;2.62;;;;;;;26.79;31.84;100289.69;5588987;31;32439;-66
2022/05/03 08:06:04;;;;;;;5.15;3.15;;;;;;;27.28;30.60;100284.34;5589082;31;32417;-64
2022/05/03 08:09:07;;;;;;;5.68;2.70;;;;;;;28.24;28.20;100281.00;5590071;31;34011;-66
2022/05/03 08:12:16;;;;;;;7.10;2.90;;;;;;;25.94;31.42;100285.97;5589881;31;34092;-66
2022/05/03 08:15:20;;;;;;;3.87;2.58;;;;;;;25.73;31.82;100276.16;5589829;31;34845;-65
2022/05/03 08:18:23;;;;;;;7.15;3.05;;;;;;;26.56;31.46;100280.25;5589171;31;33590;-65
2022/05/03 08:21:27;;;;;;;5.68;2.55;;;;;;;26.48;31.19;100282.72;5589797;31;33930;-65
2022/05/03 08:24:31;;;;;;;8.00;2.65;;;;;;;26.45;31.18;100280.53;5589116;31;33041;-66
2022/05/03 08:27:38;;;;;;;3.08;2.25;;;;;;;26.16;33.00;100282.97;5588984;31;33404;-66
2022/05/03 08:30:41;;;;;;;2.78;1.98;;;;;;;26.52;31.64;100278.34;5588953;31;33305;-67
2022/05/03 08:33:44;;;;;;;2.67;2.00;;;;;;;25.50;32.69;100282.88;5575245;31;33675;-66
2022/05/03 08:42:01;;;;;;;2.45;1.62;;;;;;;26.72;31.04;100278.31;5589524;31;33981;-66
2022/05/03 08:43:32;;;;;;;3.30;1.40;;;;;;;26.31;30.46;100272.94;5588590;31;35180;-65
2022/05/03 08:46:36;;;;;;;1.60;1.27;;;;;;;27.99;27.39;100273.81;5589130;31;34753;-66
2022/05/03 08:49:49;;;;;;;2.00;1.17;;;;;;;28.83;27.24;100275.25;5589575;31;34046;-66
2022/05/03 08:52:59;;;;;;;3.22;1.90;;;;;;;28.24;26.60;100270.09;5588763;31;32973;-66
2022/05/03 08:56:02;;;;;;;2.03;1.65;;;;;;;27.35;28.41;100271.25;5589715;31;34061;-67
2022/05/03 08:59:05;;;;;;;3.85;2.20;;;;;;;28.03;28.02;100268.63;5589333;31;34021;-66
2022/05/03 09:02:08;;;;;;;5.00;1.77;;;;;;;27.59;27.47;100264.03;5589764;31;34002;-66
2022/05/03 09:05:11;;;;;;;2.85;1.80;;;;;;;28.61;27.68;100272.16;5575351;31;33679;-66
2022/05/03 09:08:21;;;;;;;2.72;1.42;;;;;;;29.99;24.54;100272.03;5589122;31;34031;-66
2022/05/03 09:11:24;;;;;;;1.90;1.40;;;;;;;28.76;26.78;100258.38;5588271;31;32563;-66
2022/05/03 09:14:33;;;;;;;3.78;1.87;;;;;;;30.49;24.17;100276.66;5588376;31;33448;-67
2022/05/03 09:17:39;;;;;;;;;;;;;;;29.36;25.02;100262.31;5588619;31;32608;-65
2022/05/03 09:24:05;;;;;;;5.15;1.62;;;;;;;29.70;24.28;100261.25;5588097;31;34335;-66
2022/05/03 09:27:21;;;;;;;3.30;1.55;;;;;;;30.73;23.20;100251.81;5588285;31;34394;-66
2022/05/03 09:30:24;;;;;;;5.22;1.73;;;;;;;29.36;23.88;100248.62;5589169;31;33914;-64
2022/05/03 09:33:27;;;;;;;2.30;1.42;;;;;;;29.26;24.01;100247.94;5589029;31;33988;-66
2022/05/03 09:36:44;;;;;;;3.15;1.90;;;;;;;31.89;22.00;100243.78;5587743;31;33236;-67
2022/05/03 09:40:08;;;;;;;4.30;1.70;;;;;;;30.56;23.09;100246.94;5590046;31;34054;-64
2022/05/03 09:43:13;;;;;;;3.55;1.83;;;;;;;31.52;22.67;100246.84;5591282;31;34645;-64
2022/05/03 09:46:16;;;;;;;3.83;1.77;;;;;;;29.91;23.70;100246.19;5589663;31;34448;-65
2022/05/03 09:49:35;;;;;;;2.00;1.58;;;;;;;31.49;21.16;100250.22;5590897;31;34782;-64
2022/05/03 09:52:40;;;;;;;4.35;1.65;;;;;;;34.28;18.44;100248.56;5588618;31;34098;-66
2022/05/03 09:55:45;;;;;;;2.90;1.73;;;;;;;34.02;18.89;100243.94;5588719;31;34055;-67
2022/05/03 09:58:51;;;;;;;2.37;1.60;;;;;;;33.30;19.28;100234.72;5587750;31;32384;-65
2022/05/03 10:01:53;;;;;;;2.85;1.70;;;;;;;32.92;20.19;100232.50;5587736;31;33031;-65
2022/05/03 10:04:58;;;;;;;5.15;1.80;;;;;;;31.72;21.34;100234.59;5588735;31;34413;-66
2022/05/03 10:08:03;;;;;;;2.10;1.50;;;;;;;32.19;20.83;100225.75;5588511;31;35169;-66
2022/05/03 10:11:06;;;;;;;2.50;1.58;;;;;;;32.44;19.81;100218.75;5588541;31;33988;-66
2022/05/03 10:14:08;;;;;;;4.40;1.90;;;;;;;31.47;20.21;100217.59;5588117;31;34062;-66
2022/05/03 10:20:49;;;;;;;5.47;1.70;;;;;;;29.71;22.72;100214.47;5587358;31;33456;-66
2022/05/03 10:24:12;;;;;;;2.78;1.83;;;;;;;29.49;22.26;100210.72;5588465;31;33480;-65
2022/05/03 10:27:14;;;;;;;3.50;1.77;;;;;;;26.01;26.52;100212.28;5588418;31;33959;-66
2022/05/03 10:30:20;;;;;;;4.62;1.70;;;;;;;25.68;26.74;100211.75;5588437;31;34679;-65
2022/05/03 10:33:28;;;;;;;3.90;2.03;;;;;;;26.06;27.71;100204.13;5587727;31;32437;-64
2022/05/03 10:36:31;;;;;;;3.27;1.93;;;;;;;25.64;27.94;100202.50;5588227;31;35469;-64
2022/05/03 10:39:43;;;;;;;2.95;1.80;;;;;;;25.52;27.46;100202.75;5588091;31;34633;-65
2022/05/03 10:43:07;;;;;;;4.72;1.80;;;;;;;26.95;26.62;100198.75;5587328;31;34576;-67
2022/05/03 10:46:12;;;;;;;2.10;1.62;;;;;;;28.62;22.72;100207.47;5587168;31;33296;-65
2022/05/03 10:49:20;;;;;;;1.65;1.20;;;;;;;27.08;26.41;100208.19;5586861;31;33143;-66
2022/05/03 10:52:23;;;;;;;2.37;1.30;;;;;;;26.27;28.12;100203.03;5587897;31;34842;-64
2022/05/03 10:55:38;;;;;;;2.05;1.30;;;;;;;26.91;27.21;100205.03;5587864;31;34539;-67
2022/05/03 10:58:46;;;;;;;2.00;1.37;;;;;;;25.70;29.02;100201.44;5588100;31;34013;-66
2022/05/03 11:01:55;;;;;;;2.22;1.70;;;;;;;23.22;33.39;100193.75;5587174;31;33638;-64
2022/05/03 11:05:16;;;;;;;2.42;1.45;;;;;;;24.71;31.63;100187.28;5587566;31;34252;-66
2022/05/03 11:08:21;;;;;;;4.18;1.80;;;;;;;24.73;30.99;100193.28;5589332;31;34621;-65
2022/05/03 11:11:40;;;;;;;4.60;1.48;;;;;;;23.30;32.58;100191.41;5589520;31;32062;-64
2022/05/03 11:14:45;;;;;;;1.92;1.12;;;;;;;22.64;33.71;100189.81;5590581;31;33854;-64
2022/05/03 11:17:48;;;;;;;2.20;1.12;;;;;;;22.20;33.32;100193.53;5589984;31;34151;-64
2022/05/03 11:20:51;;;;;;;2.12;1.62;;;;;;;22.34;33.04;100190.22;5589836;31;32296;-67
2022/05/03 11:23:55;;;;;;;4.97;1.52;;;;;;;21.65;32.96;100186.16;5590491;31;34147;-65
2022/05/03 11:27:05;;;;;;;2.80;1.50;;;;;;;21.85;33.45;100183.78;5590029;31;34141;-66
2022/05/03 11:30:10;;;;;;;4.95;1.98;;;;;;;21.43;32.92;100187.94;5589089;31;34045;-64
2022/05/03 11:33:14;;;;;;;2.85;1.90;;;;;;;21.45;33.26;100180.41;5590407;31;34354;-66
2022/05/03 11:36:23;;;;;;;2.40;1.67;;;;;;;21.27;34.40;100181.44;5590400;31;34068;-64
2022/05/03 11:39:26;;;;;;;3.05;1.60;;;;;;;21.21;35.63;100188.63;5590429;31;33893;-64
2022/05/03 11:42:36;;;;;;;3.53;1.95;;;;;;;21.17;36.58;100186.66;5590252;31;34687;-64
2022/05/03 11:45:39;;;;;;;3.40;1.90;;;;;;;22.58;34.87;100182.69;5589717;31;34517;-65
2022/05/03 11:48:43;;;;;;;2.40;1.48;;;;;;;23.56;32.61;100176.25;5589407;31;32379;-67
2022/05/03 11:58:36;;;;;;;1.60;1.30;;;;;;;27.88;24.60;100173.31;5590103;31;33935;-66
2022/05/03 12:01:39;;;;;;;2.97;1.20;;;;;;;26.08;26.93;100174.75;5589934;31;34627;-68
2022/05/03 12:05:04;;;;;;;1.58;1.00;;;;;;;28.26;24.44;100177.88;5589947;31;34012;-67
2022/05/03 12:08:19;;;;;;;1.20;1.00;;;;;;;29.54;21.84;100178.66;5589954;31;34015;-65
2022/05/03 12:11:26;;;;;;;2.08;1.20;;;;;;;30.20;21.42;100175.63;5589619;31;34396;-66
2022/05/03 12:14:33;;;;;;;1.75;1.00;;;;;;;30.96;20.05;100170.53;5589347;31;32744;-66
2022/05/03 12:18:02;;;;;;;1.87;1.20;;;;;;;31.92;19.24;100168.25;5589628;31;34017;-66
2022/05/03 12:21:15;;;;;;;2.12;1.12;;;;;;;30.44;19.71;100169.16;5589572;31;34604;-65
2022/05/03 12:24:33;;;;;;;1.40;1.23;;;;;;;30.53;20.03;100170.91;5589059;31;33977;-65
2022/05/03 12:27:46;;;;;;;2.72;1.40;;;;;;;32.08;19.11;100164.00;5589171;31;33574;-66
2022/05/03 12:30:57;;;;;;;3.42;1.37;;;;;;;32.80;17.72;100163.63;5589025;31;32457;-65
2022/05/03 12:34:02;;;;;;;2.42;1.20;;;;;;;34.11;16.78;100161.31;5590148;31;33566;-66
2022/05/03 12:37:09;;;;;;;3.03;1.30;;;;;;;33.75;17.32;100161.72;5590184;31;34173;-66
2022/05/03 12:40:23;;;;;;;4.50;1.70;;;;;;;31.20;19.13;100154.66;5590113;31;35224;-65
2022/05/03 12:43:32;;;;;;;2.12;1.25;;;;;;;31.19;19.47;100152.22;5589741;31;34449;-66
2022/05/03 12:46:36;;;;;;;2.85;1.40;;;;;;;30.79;21.22;100151.97;5589772;31;34656;-66
2022/05/03 12:49:39;;;;;;;2.97;1.40;;;;;;;29.87;22.37;100145.84;5589723;31;34553;-66
2022/05/03 12:52:42;;;;;;;1.58;1.23;;;;;;;28.93;23.24;100146.78;5588796;31;32352;-67
2022/05/03 12:55:45;;;;;;;2.55;1.50;;;;;;;32.05;19.90;100142.66;5589662;31;34024;-66
2022/05/03 12:58:48;;;;;;;1.75;1.33;;;;;;;34.24;17.71;100138.28;5588749;31;32794;-66
2022/05/03 13:01:55;;;;;;;5.28;1.58;;;;;;;34.28;17.03;100130.97;5576097;31;33364;-66
2022/05/03 13:04:58;;;;;;;2.50;1.60;;;;;;;35.43;16.05;100135.06;5589437;31;34623;-66
2022/05/03 13:08:01;;;;;;;2.33;1.35;;;;;;;32.08;18.75;100128.31;5588869;31;33335;-67
2022/05/03 13:11:04;;;;;;;3.08;1.50;;;;;;;31.11;20.33;100131.03;5589725;31;33941;-67
2022/05/03 13:14:09;;;;;;;3.15;1.40;;;;;;;34.07;19.61;100123.75;5588821;31;32960;-66
2022/05/03 13:17:13;;;;;;;3.60;0.95;;;;;;;33.81;19.13;100123.84;5589405;31;35251;-67
2022/05/03 13:20:19;;;;;;;2.67;1.40;;;;;;;33.13;19.38;100120.81;5588625;31;33522;-67
2022/05/03 13:23:22;;;;;;;2.22;1.52;;;;;;;34.56;18.48;100125.81;5589075;31;34021;-66
2022/05/03 13:26:25;;;;;;;2.87;1.60;;;;;;;36.71;16.94;100125.56;5589148;31;34080;-66
2022/05/03 13:29:30;;;;;;;2.10;1.55;;;;;;;34.37;18.01;100128.97;5588853;31;34588;-66
2022/05/03 13:32:33;;;;;;;1.58;1.17;;;;;;;33.52;18.31;100128.09;5589005;31;33990;-65
2022/05/03 13:42:19;;;;;;;2.67;1.50;;;;;;;31.10;19.95;100116.53;5589056;31;34007;-66
2022/05/03 13:45:22;;;;;;;2.08;1.33;;;;;;;30.58;21.47;100112.47;5589036;31;34157;-66
2022/05/03 13:48:46;;;;;;;1.87;1.48;;;;;;;30.42;21.36;100111.13;5588092;31;33736;-66
2022/05/03 13:51:48;;;;;;;3.20;1.85;;;;;;;28.18;23.69;100106.75;5588990;31;33970;-66
2022/05/03 13:54:51;;;;;;;3.15;1.60;;;;;;;27.79;24.69;100099.50;5587790;31;33131;-66
2022/05/03 13:57:55;;;;;;;2.08;1.42;;;;;;;29.60;22.84;100108.31;5588796;31;34229;-67
2022/05/03 14:00:57;;;;;;;3.37;1.35;;;;;;;30.68;21.61;100109.53;5587679;31;32533;-66
2022/05/03 14:04:02;;;;;;;1.95;1.30;;;;;;;34.34;18.68;100110.34;5588131;31;32875;-66
2022/05/03 14:07:05;;;;;;;2.60;1.70;;;;;;;33.23;18.88;100116.16;5587797;31;32606;-67
2022/05/03 14:10:08;;;;;;;3.80;1.37;;;;;;;32.40;19.43;100109.84;5586981;31;32918;-66
2022/05/03 14:13:11;;;;;;;2.47;1.55;;;;;;;34.30;17.59;100105.84;5587179;31;33576;-67
2022/05/03 14:16:16;;;;;;;3.12;1.80;;;;;;;35.67;16.26;100104.00;5587533;31;32289;-67
2022/05/03 14:19:19;;;;;;;4.22;1.37;;;;;;;36.83;15.54;100100.69;5588203;31;35172;-66
2022/05/03 14:22:22;;;;;;;4.80;1.55;;;;;;;37.52;15.22;100102.28;5588077;31;33912;-66
2022/05/03 14:25:25;;;;;;;2.45;1.50;;;;;;;34.73;16.66;100111.91;5588133;31;33921;-65
2022/05/03 14:28:31;;;;;;;2.70;1.65;;;;;;;33.04;18.16;100116.44;5588274;31;34013;-66
2022/05/03 14:31:37;;;;;;;2.47;1.70;;;;;;;27.44;26.52;100117.00;5587704;31;34954;-65
2022/05/03 14:34:41;;;;;;;7.68;1.50;;;;;;;25.51;31.00;100110.66;5588074;31;35204;-64
2022/05/03 14:37:43;;;;;;;4.57;1.60;;;;;;;25.03;32.01;100118.22;5586786;31;33033;-66
2022/05/03 14:40:46;;;;;;;2.47;1.42;;;;;;;24.14;32.34;100117.59;5587249;31;34083;-66
2022/05/03 14:43:49;;;;;;;1.60;1.30;;;;;;;23.89;33.11;100118.25;5589181;31;34624;-65
2022/05/03 14:46:52;;;;;;;2.55;1.52;;;;;;;23.71;35.05;100122.19;5589060;31;32495;-65
2022/05/03 14:49:55;;;;;;;2.03;1.55;;;;;;;24.19;33.73;100126.59;5588772;31;34185;-65
2022/05/03 14:52:58;;;;;;;5.20;1.58;;;;;;;23.67;34.00;100128.41;5590058;31;34650;-65
2022/05/03 15:02:59;;;;;;;3.25;1.67;;;;;;;22.42;37.12;100134.91;5590289;31;34863;-64
2022/05/03 15:06:03;;;;;;;2.47;1.70;;;;;;;22.06;40.58;100128.22;5589546;31;32338;-64
2022/05/03 15:09:06;;;;;;;4.62;1.80;;;;;;;22.27;41.17;100138.22;5590102;31;35214;-64